TimeEDT,TemperatureF,Dew PointF,Humidity,Sea Level PressureIn,VisibilityMPH,Wind Direction,Wind SpeedMPH,Gust SpeedMPH,PrecipitationIn,Events,Conditions,WindDirDegrees,DateUTC
12:53 AM,79.0,73.9,84,30.03,10.0,Calm,Calm,-,N/A,,Overcast,0,2012-09-20 04:53:00
1:53 AM,79.0,73.9,84,30.02,10.0,Calm,Calm,-,0.00,,Overcast,0,2012-09-20 05:53:00
2:53 AM,78.1,73.9,87,30.01,10.0,Calm,Calm,-,N/A,,Overcast,0,2012-09-20 06:53:00
3:53 AM,78.1,73.9,87,30.01,10.0,Calm,Calm,-,N/A,,Overcast,0,2012-09-20 07:53:00
4:53 AM,78.1,73.9,87,30.01,10.0,Calm,Calm,-,0.00,,Overcast,0,2012-09-20 08:53:00
5:53 AM,78.1,73.9,87,30.00,10.0,Calm,Calm,-,0.00,Rain,Light Rain,0,2012-09-20 09:53:00
6:53 AM,78.1,73.9,87,30.00,10.0,Calm,Calm,-,0.00,Rain,Light Rain,0,2012-09-20 10:53:00
7:53 AM,78.1,73.9,87,30.01,9.0,Calm,Calm,-,0.00,,Overcast,0,2012-09-20 11:53:00
8:53 AM,78.8,73.4,83,30.04,10.0,Calm,Calm,-,N/A,,Overcast,0,2012-09-20 12:53:00
9:53 AM,80.1,73.0,79,30.05,10.0,Calm,Calm,-,N/A,,Overcast,0,2012-09-20 13:53:00
10:53 AM,81.0,73.0,77,30.04,10.0,ENE,3.5,-,N/A,,Overcast,70,2012-09-20 14:53:00
11:53 AM,84.0,73.0,69,30.04,10.0,Calm,Calm,-,N/A,,Mostly Cloudy,0,2012-09-20 15:53:00
12:53 PM,84.0,72.0,67,30.03,10.0,Calm,Calm,-,N/A,,Mostly Cloudy,0,2012-09-20 16:53:00
1:05 PM,84.2,71.6,66,30.03,10.0,Calm,Calm,-,N/A,,Overcast,0,2012-09-20 17:05:00
1:35 PM,84.2,73.4,70,30.03,10.0,WSW,3.5,-,N/A,,Overcast,240,2012-09-20 17:35:00
1:53 PM,82.9,73.0,72,30.02,10.0,SW,3.5,-,N/A,,Overcast,220,2012-09-20 17:53:00
2:41 PM,80.6,75.2,84,30.00,6.0,Calm,Calm,-,0.01,Rain,Light Rain,0,2012-09-20 18:41:00
2:53 PM,81.0,73.9,79,30.00,10.0,Calm,Calm,-,0.01,Rain,Light Rain,0,2012-09-20 18:53:00
3:53 PM,82.0,71.1,69,29.98,10.0,SW,5.8,-,0.00,,Mostly Cloudy,230,2012-09-20 19:53:00
4:53 PM,82.9,72.0,69,29.96,10.0,SW,3.5,-,N/A,,Mostly Cloudy,230,2012-09-20 20:53:00
5:53 PM,84.0,71.1,65,29.96,10.0,WSW,4.6,-,N/A,,Mostly Cloudy,250,2012-09-20 21:53:00
6:53 PM,84.0,71.1,65,29.97,10.0,WSW,4.6,-,N/A,,Mostly Cloudy,250,2012-09-20 22:53:00
7:53 PM,82.9,72.0,69,29.99,10.0,NW,9.2,-,N/A,,Overcast,310,2012-09-20 23:53:00
8:18 PM,78.8,69.8,74,30.02,9.0,NE,13.8,21.9,N/A,Thunderstorm,Thunderstorm,40,2012-09-21 00:18:00
8:53 PM,73.9,68.0,82,30.03,9.0,ENE,6.9,-,N/A,,Overcast,70,2012-09-21 00:53:00
9:53 PM,73.9,69.1,85,30.04,8.0,North,5.8,-,0.06,Rain,Rain,10,2012-09-21 01:53:00
9:55 PM,73.4,69.8,88,30.04,1.8,NNE,6.9,-,0.04,Rain,Rain,30,2012-09-21 01:55:00
9:58 PM,73.4,69.8,88,30.04,8.0,NNE,5.8,-,0.10,Rain,Rain,20,2012-09-21 01:58:00
10:53 PM,75.0,71.1,87,30.03,10.0,North,3.5,-,0.15,,Overcast,360,2012-09-21 02:53:00
11:53 PM,77.0,71.1,82,30.04,10.0,Calm,Calm,-,0.00,,Overcast,0,2012-09-21 03:53:00